sensor_id;sensor_type;location;lat;lon;timestamp;temperature;humidity
83683;DHT22;73663;51.298;5.802;2024-02-21T00:00:45;14.90;56.30
83683;DHT22;73663;51.298;5.802;2024-02-21T00:05:53;14.90;56.30
83683;DHT22;73663;51.298;5.802;2024-02-21T00:11:00;14.80;56.30
83683;DHT22;73663;51.298;5.802;2024-02-21T00:16:08;14.90;56.30
83683;DHT22;73663;51.298;5.802;2024-02-21T00:21:15;14.90;56.30
83683;DHT22;73663;51.298;5.802;2024-02-21T00:26:23;14.90;56.40
83683;DHT22;73663;51.298;5.802;2024-02-21T00:31:30;14.90;56.40
83683;DHT22;73663;51.298;5.802;2024-02-21T00:36:38;14.90;56.40
83683;DHT22;73663;51.298;5.802;2024-02-21T00:41:45;14.90;56.40
83683;DHT22;73663;51.298;5.802;2024-02-21T00:46:53;14.90;56.40
83683;DHT22;73663;51.298;5.802;2024-02-21T00:52:00;14.90;56.40
83683;DHT22;73663;51.298;5.802;2024-02-21T00:57:07;14.90;56.40
83683;DHT22;73663;51.298;5.802;2024-02-21T01:02:15;14.90;56.40
83683;DHT22;73663;51.298;5.802;2024-02-21T01:07:22;14.90;56.40
83683;DHT22;73663;51.298;5.802;2024-02-21T01:12:30;14.90;56.40
83683;DHT22;73663;51.298;5.802;2024-02-21T01:17:37;14.90;56.40
83683;DHT22;73663;51.298;5.802;2024-02-21T01:28:42;14.90;56.40
83683;DHT22;73663;51.298;5.802;2024-02-21T01:33:49;14.90;56.50
83683;DHT22;73663;51.298;5.802;2024-02-21T01:38:57;14.90;56.40
83683;DHT22;73663;51.298;5.802;2024-02-21T01:44:05;14.90;56.40
83683;DHT22;73663;51.298;5.802;2024-02-21T01:49:12;14.90;56.40
83683;DHT22;73663;51.298;5.802;2024-02-21T01:54:20;14.90;56.40
83683;DHT22;73663;51.298;5.802;2024-02-21T02:05:25;14.80;56.40
83683;DHT22;73663;51.298;5.802;2024-02-21T02:10:33;14.60;56.50
83683;DHT22;73663;51.298;5.802;2024-02-21T02:15:47;14.60;56.50
83683;DHT22;73663;51.298;5.802;2024-02-21T02:20:55;14.70;56.50
83683;DHT22;73663;51.298;5.802;2024-02-21T02:26:02;14.70;56.50
83683;DHT22;73663;51.298;5.802;2024-02-21T02:31:10;14.70;56.50
83683;DHT22;73663;51.298;5.802;2024-02-21T02:36:17;14.70;56.50
83683;DHT22;73663;51.298;5.802;2024-02-21T02:41:25;14.80;56.50
83683;DHT22;73663;51.298;5.802;2024-02-21T02:46:32;14.70;56.50
83683;DHT22;73663;51.298;5.802;2024-02-21T02:51:43;14.70;56.50
83683;DHT22;73663;51.298;5.802;2024-02-21T02:56:52;14.70;56.50
83683;DHT22;73663;51.298;5.802;2024-02-21T03:01:59;14.70;56.50
83683;DHT22;73663;51.298;5.802;2024-02-21T03:07:07;14.70;56.50
83683;DHT22;73663;51.298;5.802;2024-02-21T03:12:14;14.70;56.50
83683;DHT22;73663;51.298;5.802;2024-02-21T03:17:24;14.70;56.50
83683;DHT22;73663;51.298;5.802;2024-02-21T03:22:31;14.70;56.50
83683;DHT22;73663;51.298;5.802;2024-02-21T03:27:39;14.70;56.50
83683;DHT22;73663;51.298;5.802;2024-02-21T03:32:47;14.60;56.50
83683;DHT22;73663;51.298;5.802;2024-02-21T03:37:54;14.60;56.50
83683;DHT22;73663;51.298;5.802;2024-02-21T03:43:02;14.60;56.50
83683;DHT22;73663;51.298;5.802;2024-02-21T03:48:09;14.60;56.50
83683;DHT22;73663;51.298;5.802;2024-02-21T03:53:17;14.60;56.50
83683;DHT22;73663;51.298;5.802;2024-02-21T03:58:24;14.60;56.50
83683;DHT22;73663;51.298;5.802;2024-02-21T04:03:32;14.50;56.50
83683;DHT22;73663;51.298;5.802;2024-02-21T04:08:39;14.50;56.50
83683;DHT22;73663;51.298;5.802;2024-02-21T04:13:47;14.50;56.50
83683;DHT22;73663;51.298;5.802;2024-02-21T04:18:54;14.40;56.40
83683;DHT22;73663;51.298;5.802;2024-02-21T04:24:02;14.30;56.40
83683;DHT22;73663;51.298;5.802;2024-02-21T04:29:10;14.20;56.40
83683;DHT22;73663;51.298;5.802;2024-02-21T04:34:17;14.10;56.50
83683;DHT22;73663;51.298;5.802;2024-02-21T04:39:25;14.10;56.60
83683;DHT22;73663;51.298;5.802;2024-02-21T04:44:32;14.20;56.60
83683;DHT22;73663;51.298;5.802;2024-02-21T04:49:40;14.30;56.50
83683;DHT22;73663;51.298;5.802;2024-02-21T04:54:48;14.30;56.60
83683;DHT22;73663;51.298;5.802;2024-02-21T04:59:55;14.40;56.50
83683;DHT22;73663;51.298;5.802;2024-02-21T05:05:03;14.40;56.50
83683;DHT22;73663;51.298;5.802;2024-02-21T05:10:10;14.50;56.50
83683;DHT22;73663;51.298;5.802;2024-02-21T05:15:18;14.40;56.50
83683;DHT22;73663;51.298;5.802;2024-02-21T05:20:25;14.40;56.50
83683;DHT22;73663;51.298;5.802;2024-02-21T05:25:33;14.40;56.50
83683;DHT22;73663;51.298;5.802;2024-02-21T05:30:40;14.40;56.60
83683;DHT22;73663;51.298;5.802;2024-02-21T05:35:48;14.40;56.60
83683;DHT22;73663;51.298;5.802;2024-02-21T05:40:55;14.40;56.60
83683;DHT22;73663;51.298;5.802;2024-02-21T05:46:02;14.40;56.60
83683;DHT22;73663;51.298;5.802;2024-02-21T05:51:10;14.40;56.50
83683;DHT22;73663;51.298;5.802;2024-02-21T05:56:18;14.40;56.50
83683;DHT22;73663;51.298;5.802;2024-02-21T06:01:25;14.40;56.60
83683;DHT22;73663;51.298;5.802;2024-02-21T06:06:33;14.50;56.50
83683;DHT22;73663;51.298;5.802;2024-02-21T06:11:40;14.50;56.50
83683;DHT22;73663;51.298;5.802;2024-02-21T06:16:48;14.40;56.50
83683;DHT22;73663;51.298;5.802;2024-02-21T06:21:55;14.40;56.50
83683;DHT22;73663;51.298;5.802;2024-02-21T06:27:02;14.40;56.50
83683;DHT22;73663;51.298;5.802;2024-02-21T06:32:10;14.40;56.60
83683;DHT22;73663;51.298;5.802;2024-02-21T06:37:18;14.40;56.60
83683;DHT22;73663;51.298;5.802;2024-02-21T06:42:26;14.40;56.60
83683;DHT22;73663;51.298;5.802;2024-02-21T06:47:34;14.40;56.60
83683;DHT22;73663;51.298;5.802;2024-02-21T06:52:41;14.40;56.60
83683;DHT22;73663;51.298;5.802;2024-02-21T06:57:49;14.40;56.60
83683;DHT22;73663;51.298;5.802;2024-02-21T07:02:56;14.40;56.60
83683;DHT22;73663;51.298;5.802;2024-02-21T07:08:04;14.50;56.60
83683;DHT22;73663;51.298;5.802;2024-02-21T07:13:11;14.50;56.60
83683;DHT22;73663;51.298;5.802;2024-02-21T07:18:19;14.50;56.60
83683;DHT22;73663;51.298;5.802;2024-02-21T07:23:26;14.50;56.60
83683;DHT22;73663;51.298;5.802;2024-02-21T07:28:34;14.60;56.60
83683;DHT22;73663;51.298;5.802;2024-02-21T07:33:41;14.60;56.60
83683;DHT22;73663;51.298;5.802;2024-02-21T07:38:49;14.60;56.60
83683;DHT22;73663;51.298;5.802;2024-02-21T07:43:56;14.60;56.60
83683;DHT22;73663;51.298;5.802;2024-02-21T07:49:04;14.70;56.60
83683;DHT22;73663;51.298;5.802;2024-02-21T07:54:11;14.70;56.60
83683;DHT22;73663;51.298;5.802;2024-02-21T07:59:19;14.70;56.70
83683;DHT22;73663;51.298;5.802;2024-02-21T08:04:26;14.70;56.60
83683;DHT22;73663;51.298;5.802;2024-02-21T08:09:34;14.70;56.60
83683;DHT22;73663;51.298;5.802;2024-02-21T08:14:41;14.70;56.60
83683;DHT22;73663;51.298;5.802;2024-02-21T08:19:49;14.70;56.60
83683;DHT22;73663;51.298;5.802;2024-02-21T08:24:56;14.70;56.60
83683;DHT22;73663;51.298;5.802;2024-02-21T08:30:04;14.70;56.70
83683;DHT22;73663;51.298;5.802;2024-02-21T08:35:12;14.70;56.70
83683;DHT22;73663;51.298;5.802;2024-02-21T08:40:19;14.70;56.70
83683;DHT22;73663;51.298;5.802;2024-02-21T08:45:26;14.70;56.70
83683;DHT22;73663;51.298;5.802;2024-02-21T08:50:34;14.70;56.70
83683;DHT22;73663;51.298;5.802;2024-02-21T08:55:41;14.70;56.70
83683;DHT22;73663;51.298;5.802;2024-02-21T09:00:49;14.70;56.80
83683;DHT22;73663;51.298;5.802;2024-02-21T09:05:56;14.70;56.80
83683;DHT22;73663;51.298;5.802;2024-02-21T09:11:04;14.70;56.80
83683;DHT22;73663;51.298;5.802;2024-02-21T09:16:11;14.80;56.90
83683;DHT22;73663;51.298;5.802;2024-02-21T09:21:19;14.90;56.90
83683;DHT22;73663;51.298;5.802;2024-02-21T09:26:27;15.00;56.90
83683;DHT22;73663;51.298;5.802;2024-02-21T09:31:34;15.00;56.90
83683;DHT22;73663;51.298;5.802;2024-02-21T09:36:42;15.20;56.90
83683;DHT22;73663;51.298;5.802;2024-02-21T09:41:50;15.30;56.80
83683;DHT22;73663;51.298;5.802;2024-02-21T09:47:09;15.30;56.80
83683;DHT22;73663;51.298;5.802;2024-02-21T09:52:17;15.40;56.80
83683;DHT22;73663;51.298;5.802;2024-02-21T09:57:26;15.50;56.80
83683;DHT22;73663;51.298;5.802;2024-02-21T10:02:34;15.60;56.80
83683;DHT22;73663;51.298;5.802;2024-02-21T10:07:41;15.60;56.70
83683;DHT22;73663;51.298;5.802;2024-02-21T10:12:55;15.60;56.60
83683;DHT22;73663;51.298;5.802;2024-02-21T10:18:03;15.60;56.60
83683;DHT22;73663;51.298;5.802;2024-02-21T10:23:13;15.60;56.60
83683;DHT22;73663;51.298;5.802;2024-02-21T10:28:21;15.80;56.60
83683;DHT22;73663;51.298;5.802;2024-02-21T10:33:28;15.80;56.60
83683;DHT22;73663;51.298;5.802;2024-02-21T10:38:36;16.00;56.60
83683;DHT22;73663;51.298;5.802;2024-02-21T10:43:43;16.10;56.50
83683;DHT22;73663;51.298;5.802;2024-02-21T10:48:59;16.30;56.50
83683;DHT22;73663;51.298;5.802;2024-02-21T10:54:30;16.40;56.40
83683;DHT22;73663;51.298;5.802;2024-02-21T10:59:42;16.40;56.30
83683;DHT22;73663;51.298;5.802;2024-02-21T11:04:50;16.50;56.30
83683;DHT22;73663;51.298;5.802;2024-02-21T11:09:58;16.60;56.20
83683;DHT22;73663;51.298;5.802;2024-02-21T11:15:08;16.70;56.10
83683;DHT22;73663;51.298;5.802;2024-02-21T11:20:16;16.80;56.10
83683;DHT22;73663;51.298;5.802;2024-02-21T11:25:26;16.90;56.20
83683;DHT22;73663;51.298;5.802;2024-02-21T11:30:35;17.00;56.20
83683;DHT22;73663;51.298;5.802;2024-02-21T11:35:43;17.10;56.10
83683;DHT22;73663;51.298;5.802;2024-02-21T11:40:51;17.10;56.10
83683;DHT22;73663;51.298;5.802;2024-02-21T11:46:07;17.30;56.00
83683;DHT22;73663;51.298;5.802;2024-02-21T11:51:24;17.50;55.80
83683;DHT22;73663;51.298;5.802;2024-02-21T11:56:31;17.60;55.80
83683;DHT22;73663;51.298;5.802;2024-02-21T12:01:39;18.00;56.10
83683;DHT22;73663;51.298;5.802;2024-02-21T12:06:46;18.60;55.90
83683;DHT22;73663;51.298;5.802;2024-02-21T12:12:07;18.80;55.60
83683;DHT22;73663;51.298;5.802;2024-02-21T12:17:16;18.80;55.30
83683;DHT22;73663;51.298;5.802;2024-02-21T12:22:24;18.70;55.40
83683;DHT22;73663;51.298;5.802;2024-02-21T12:27:32;18.90;55.20
83683;DHT22;73663;51.298;5.802;2024-02-21T12:32:39;18.90;55.10
83683;DHT22;73663;51.298;5.802;2024-02-21T12:37:47;19.20;54.80
83683;DHT22;73663;51.298;5.802;2024-02-21T12:42:54;19.40;55.00
83683;DHT22;73663;51.298;5.802;2024-02-21T12:48:02;19.50;54.80
83683;DHT22;73663;51.298;5.802;2024-02-21T12:53:09;19.50;54.60
83683;DHT22;73663;51.298;5.802;2024-02-21T12:58:16;19.50;54.20
83683;DHT22;73663;51.298;5.802;2024-02-21T13:03:24;19.10;54.10
83683;DHT22;73663;51.298;5.802;2024-02-21T13:08:31;18.70;54.00
83683;DHT22;73663;51.298;5.802;2024-02-21T13:13:39;18.30;54.10
83683;DHT22;73663;51.298;5.802;2024-02-21T13:18:46;18.10;54.00
83683;DHT22;73663;51.298;5.802;2024-02-21T13:23:54;17.80;54.00
83683;DHT22;73663;51.298;5.802;2024-02-21T13:29:01;17.70;54.10
83683;DHT22;73663;51.298;5.802;2024-02-21T13:34:09;17.60;54.00
83683;DHT22;73663;51.298;5.802;2024-02-21T13:39:16;17.50;54.10
83683;DHT22;73663;51.298;5.802;2024-02-21T13:44:24;17.50;54.00
83683;DHT22;73663;51.298;5.802;2024-02-21T13:49:31;17.40;54.10
83683;DHT22;73663;51.298;5.802;2024-02-21T13:54:39;17.40;53.90
83683;DHT22;73663;51.298;5.802;2024-02-21T13:59:46;17.40;54.10
83683;DHT22;73663;51.298;5.802;2024-02-21T14:04:54;17.40;54.10
83683;DHT22;73663;51.298;5.802;2024-02-21T14:10:01;17.40;54.10
83683;DHT22;73663;51.298;5.802;2024-02-21T14:15:09;17.40;54.10
83683;DHT22;73663;51.298;5.802;2024-02-21T14:20:16;17.20;54.00
83683;DHT22;73663;51.298;5.802;2024-02-21T14:25:24;17.20;54.10
83683;DHT22;73663;51.298;5.802;2024-02-21T14:30:31;17.20;54.10
83683;DHT22;73663;51.298;5.802;2024-02-21T14:35:39;17.20;54.00
83683;DHT22;73663;51.298;5.802;2024-02-21T14:40:46;17.20;54.10
83683;DHT22;73663;51.298;5.802;2024-02-21T14:45:54;17.20;54.10
83683;DHT22;73663;51.298;5.802;2024-02-21T14:51:01;17.20;54.00
83683;DHT22;73663;51.298;5.802;2024-02-21T14:56:14;17.10;54.00
83683;DHT22;73663;51.298;5.802;2024-02-21T15:01:22;17.00;53.90
83683;DHT22;73663;51.298;5.802;2024-02-21T15:06:29;17.00;53.90
83683;DHT22;73663;51.298;5.802;2024-02-21T15:11:37;17.00;54.00
83683;DHT22;73663;51.298;5.802;2024-02-21T15:16:44;16.90;54.00
83683;DHT22;73663;51.298;5.802;2024-02-21T15:21:51;16.80;54.00
83683;DHT22;73663;51.298;5.802;2024-02-21T15:26:59;16.70;53.90
83683;DHT22;73663;51.298;5.802;2024-02-21T15:32:08;16.50;53.80
83683;DHT22;73663;51.298;5.802;2024-02-21T15:37:15;16.40;53.90
83683;DHT22;73663;51.298;5.802;2024-02-21T15:42:22;16.30;53.90
83683;DHT22;73663;51.298;5.802;2024-02-21T15:47:30;16.20;53.90
83683;DHT22;73663;51.298;5.802;2024-02-21T15:52:37;16.10;54.00
83683;DHT22;73663;51.298;5.802;2024-02-21T15:57:45;16.00;54.00
83683;DHT22;73663;51.298;5.802;2024-02-21T16:02:53;16.00;54.00
83683;DHT22;73663;51.298;5.802;2024-02-21T16:08:00;15.80;54.10
83683;DHT22;73663;51.298;5.802;2024-02-21T16:13:08;15.60;54.20
83683;DHT22;73663;51.298;5.802;2024-02-21T16:18:16;15.60;54.30
83683;DHT22;73663;51.298;5.802;2024-02-21T16:23:25;15.40;54.40
83683;DHT22;73663;51.298;5.802;2024-02-21T16:28:33;15.30;54.40
83683;DHT22;73663;51.298;5.802;2024-02-21T16:33:40;15.20;54.40
83683;DHT22;73663;51.298;5.802;2024-02-21T16:38:48;15.10;54.60
83683;DHT22;73663;51.298;5.802;2024-02-21T16:43:56;15.00;54.70
83683;DHT22;73663;51.298;5.802;2024-02-21T16:49:03;15.00;54.70
83683;DHT22;73663;51.298;5.802;2024-02-21T16:54:11;14.90;54.80
83683;DHT22;73663;51.298;5.802;2024-02-21T16:59:19;14.80;54.90
83683;DHT22;73663;51.298;5.802;2024-02-21T17:04:26;14.80;55.00
83683;DHT22;73663;51.298;5.802;2024-02-21T17:09:34;14.80;55.00
83683;DHT22;73663;51.298;5.802;2024-02-21T17:14:41;14.70;55.10
83683;DHT22;73663;51.298;5.802;2024-02-21T17:19:49;14.70;55.10
83683;DHT22;73663;51.298;5.802;2024-02-21T17:24:56;14.70;55.20
83683;DHT22;73663;51.298;5.802;2024-02-21T17:30:04;14.60;55.30
83683;DHT22;73663;51.298;5.802;2024-02-21T17:35:11;14.60;55.30
83683;DHT22;73663;51.298;5.802;2024-02-21T17:40:18;14.60;55.40
83683;DHT22;73663;51.298;5.802;2024-02-21T17:45:26;14.60;55.40
83683;DHT22;73663;51.298;5.802;2024-02-21T17:50:33;14.60;55.50
83683;DHT22;73663;51.298;5.802;2024-02-21T17:55:41;14.60;55.50
83683;DHT22;73663;51.298;5.802;2024-02-21T18:00:49;14.60;55.50
83683;DHT22;73663;51.298;5.802;2024-02-21T18:05:56;14.60;55.60
83683;DHT22;73663;51.298;5.802;2024-02-21T18:11:04;14.50;55.70
83683;DHT22;73663;51.298;5.802;2024-02-21T18:16:12;14.50;55.90
83683;DHT22;73663;51.298;5.802;2024-02-21T18:21:20;14.50;55.80
83683;DHT22;73663;51.298;5.802;2024-02-21T18:26:28;14.50;55.90
83683;DHT22;73663;51.298;5.802;2024-02-21T18:31:35;14.40;55.90
83683;DHT22;73663;51.298;5.802;2024-02-21T18:36:43;14.50;55.90
83683;DHT22;73663;51.298;5.802;2024-02-21T18:41:50;14.50;56.00
83683;DHT22;73663;51.298;5.802;2024-02-21T18:46:58;14.50;56.00
83683;DHT22;73663;51.298;5.802;2024-02-21T18:52:05;14.50;56.00
83683;DHT22;73663;51.298;5.802;2024-02-21T18:57:13;14.50;56.10
83683;DHT22;73663;51.298;5.802;2024-02-21T19:02:20;14.50;56.10
83683;DHT22;73663;51.298;5.802;2024-02-21T19:07:28;14.50;56.20
83683;DHT22;73663;51.298;5.802;2024-02-21T19:12:35;14.50;56.20
83683;DHT22;73663;51.298;5.802;2024-02-21T19:17:43;14.50;56.20
83683;DHT22;73663;51.298;5.802;2024-02-21T19:22:50;14.50;56.30
83683;DHT22;73663;51.298;5.802;2024-02-21T19:27:58;14.50;56.30
83683;DHT22;73663;51.298;5.802;2024-02-21T19:33:05;14.50;56.40
83683;DHT22;73663;51.298;5.802;2024-02-21T19:38:13;14.50;56.50
83683;DHT22;73663;51.298;5.802;2024-02-21T19:43:21;14.50;56.40
83683;DHT22;73663;51.298;5.802;2024-02-21T19:48:28;14.50;56.50
83683;DHT22;73663;51.298;5.802;2024-02-21T19:53:36;14.60;56.50
83683;DHT22;73663;51.298;5.802;2024-02-21T19:58:43;14.60;56.50
83683;DHT22;73663;51.298;5.802;2024-02-21T20:03:51;14.60;56.50
83683;DHT22;73663;51.298;5.802;2024-02-21T20:08:58;14.60;56.60
83683;DHT22;73663;51.298;5.802;2024-02-21T20:14:05;14.60;56.60
83683;DHT22;73663;51.298;5.802;2024-02-21T20:19:13;14.60;56.60
83683;DHT22;73663;51.298;5.802;2024-02-21T20:24:21;14.60;56.70
83683;DHT22;73663;51.298;5.802;2024-02-21T20:29:29;14.70;56.80
83683;DHT22;73663;51.298;5.802;2024-02-21T20:34:36;14.70;56.70
83683;DHT22;73663;51.298;5.802;2024-02-21T20:39:43;14.70;56.80
83683;DHT22;73663;51.298;5.802;2024-02-21T20:44:51;14.80;56.90
83683;DHT22;73663;51.298;5.802;2024-02-21T20:49:58;14.80;56.90
83683;DHT22;73663;51.298;5.802;2024-02-21T20:55:06;14.80;57.00
83683;DHT22;73663;51.298;5.802;2024-02-21T21:00:14;14.80;57.00
83683;DHT22;73663;51.298;5.802;2024-02-21T21:05:21;14.80;57.00
83683;DHT22;73663;51.298;5.802;2024-02-21T21:10:29;14.80;57.00
83683;DHT22;73663;51.298;5.802;2024-02-21T21:15:36;14.80;57.10
83683;DHT22;73663;51.298;5.802;2024-02-21T21:20:44;14.80;57.10
83683;DHT22;73663;51.298;5.802;2024-02-21T21:25:54;14.80;57.20
83683;DHT22;73663;51.298;5.802;2024-02-21T21:31:02;14.80;57.30
83683;DHT22;73663;51.298;5.802;2024-02-21T21:36:09;14.80;57.20
83683;DHT22;73663;51.298;5.802;2024-02-21T21:41:18;14.90;57.30
83683;DHT22;73663;51.298;5.802;2024-02-21T21:46:25;14.90;57.30
83683;DHT22;73663;51.298;5.802;2024-02-21T21:51:33;14.80;57.30
83683;DHT22;73663;51.298;5.802;2024-02-21T21:56:40;14.80;57.40
83683;DHT22;73663;51.298;5.802;2024-02-21T22:01:48;14.80;57.50
83683;DHT22;73663;51.298;5.802;2024-02-21T22:06:55;14.70;57.50
83683;DHT22;73663;51.298;5.802;2024-02-21T22:12:03;14.70;57.60
83683;DHT22;73663;51.298;5.802;2024-02-21T22:17:10;14.70;57.60
83683;DHT22;73663;51.298;5.802;2024-02-21T22:22:17;14.70;57.60
83683;DHT22;73663;51.298;5.802;2024-02-21T22:27:25;14.70;57.70
83683;DHT22;73663;51.298;5.802;2024-02-21T22:32:33;14.80;57.70
83683;DHT22;73663;51.298;5.802;2024-02-21T22:37:40;14.80;57.80
83683;DHT22;73663;51.298;5.802;2024-02-21T22:42:47;14.80;57.80
83683;DHT22;73663;51.298;5.802;2024-02-21T22:47:56;14.80;57.80
83683;DHT22;73663;51.298;5.802;2024-02-21T22:53:03;14.90;57.80
83683;DHT22;73663;51.298;5.802;2024-02-21T22:58:11;15.00;57.80
83683;DHT22;73663;51.298;5.802;2024-02-21T23:03:18;15.00;57.90
83683;DHT22;73663;51.298;5.802;2024-02-21T23:08:26;15.00;57.90
83683;DHT22;73663;51.298;5.802;2024-02-21T23:13:34;15.00;57.90
83683;DHT22;73663;51.298;5.802;2024-02-21T23:18:41;15.20;58.00
83683;DHT22;73663;51.298;5.802;2024-02-21T23:23:48;15.20;58.00
83683;DHT22;73663;51.298;5.802;2024-02-21T23:28:56;15.20;58.00
83683;DHT22;73663;51.298;5.802;2024-02-21T23:34:03;15.20;58.10
83683;DHT22;73663;51.298;5.802;2024-02-21T23:39:11;15.30;58.20
83683;DHT22;73663;51.298;5.802;2024-02-21T23:44:18;15.30;58.20
83683;DHT22;73663;51.298;5.802;2024-02-21T23:49:26;15.40;58.20
83683;DHT22;73663;51.298;5.802;2024-02-21T23:54:33;15.40;58.20
83683;DHT22;73663;51.298;5.802;2024-02-21T23:59:41;15.50;58.20
